Latest Coastal Weather Observations for Bedout Island

IDW60701

Issued at 7:52 pm WST Friday 29 July 2016 (issued every 10 minutes, with the page automatically refreshed every 10 minutes)

About coastal observations | Map of coastal stations | Coastal observations for WA | Marine services | Other Formats
Station Details ID: 004100 Name: BEDOUT ISLAND Lat: -19.59 Lon: 119.10 Height: 8.6 m
Data from the previous 72 hours. | See also: Recent months at Bedout Island
Date/Time
WST
Temp
°C
Wind Pressure Rain since
9am
mm
Weather Cloud Vis
km
Sea
Height
m
Swell
Dir  Spd
kts
Gust
kts
hPa Trend Height
m
Period
s
Dir
29/07:30pm 23.1 E 6 7 1016.5 - - - - - - - - -
29/07:00pm 23.6 E 7 8 1016.1 - - - - - - - - -
29/06:30pm 24.0 E 9 10 1015.7 - - - - - - - - -
29/06:00pm 23.9 E 8 8 1015.4 - - - - - - - - -
29/05:30pm 24.3 E 9 10 1015.3 - - - - - - - - -
29/05:00pm 24.8 E 10 11 1015.2 - - - - - - - - -
29/04:30pm 25.1 E 11 12 1015.2 - - - - - - - - -
29/04:00pm 25.3 E 12 14 1015.1 - - - - - - - - -
29/03:30pm 25.2 E 13 15 1015.2 - - - - - - - - -
29/03:00pm 25.1 E 15 16 1015.2 - - - - - - - - -
29/02:30pm 25.3 E 15 17 1015.6 - - - - - - - - -
29/02:00pm 25.2 E 16 18 1015.6 - - - - - - - - -
29/01:30pm 25.1 E 17 19 1015.8 - - - - - - - - -
29/01:00pm 25.4 E 18 21 1016.1 - - - - - - - - -
29/12:30pm 25.1 E 18 20 1016.5 - - - - - - - - -
29/12:00pm 25.0 E 18 21 1017.0 - - - - - - - - -
29/11:30am 24.9 E 19 22 1017.6 - - - - - - - - -
29/11:00am 24.6 E 20 24 1017.8 - - - - - - - - -
29/10:30am 24.7 E 20 23 1018.1 - - - - - - - - -
29/10:00am 24.7 E 20 23 1018.3 - - - - - - - - -
29/09:30am 24.5 E 22 26 1018.3 - - - - - - - - -
29/09:00am 24.5 E 23 27 1018.2 - - - - - - - - -
29/08:30am 24.4 E 23 26 1018.1 - - - - - - - - -
29/08:00am 24.3 E 24 28 1017.9 - - - - - - - - -
29/07:30am 23.7 E 21 25 1018.0 - - - - - - - - -
29/07:00am 23.4 E 20 23 1017.8 - - - - - - - - -
29/06:30am 23.3 E 20 23 1017.6 - - - - - - - - -
29/06:00am 23.3 E 20 23 1017.2 - - - - - - - - -
29/05:30am 23.3 E 20 22 1016.8 - - - - - - - - -
29/05:00am 23.5 E 19 21 1016.7 - - - - - - - - -
29/04:30am 23.5 E 21 23 1016.4 - - - - - - - - -
29/04:00am 23.6 E 20 23 1016.4 - - - - - - - - -
29/03:30am 24.0 E 20 23 1016.4 - - - - - - - - -
29/03:00am 23.8 E 19 21 1016.3 - - - - - - - - -
29/02:30am 23.6 E 18 21 1016.5 - - - - - - - - -
29/02:00am 23.6 E 17 19 1016.8 - - - - - - - - -
29/01:30am 23.8 E 17 19 1017.0 - - - - - - - - -
29/01:00am 23.7 E 17 20 1017.1 - - - - - - - - -
29/12:30am 23.6 E 12 15 1017.2 - - - - - - - - -
29/12:00am 22.4 E 11 12 1017.2 - - - - - - - - -
 
Date/Time
WST
Temp
°C
Wind Pressure Rain since
9am
mm
Weather Cloud Vis
km
Sea
Height
m
Swell
Dir  Spd
kts
Gust
kts
hPa Trend Height
m
Period
s
Dir
28/11:30pm 22.4 E 8 8 1017.5 - - - - - - - - -
28/11:00pm 22.2 E 8 9 1017.7 - - - - - - - - -
28/10:30pm 22.4 E 8 9 1017.8 - - - - - - - - -
28/10:00pm 22.5 E 7 8 1017.9 - - - - - - - - -
28/09:30pm 22.5 E 6 7 1018.0 - - - - - - - - -
28/09:00pm 22.7 E 5 5 1017.9 - - - - - - - - -
28/08:30pm 23.4 E 4 4 1017.9 - - - - - - - - -
28/08:00pm 23.5 E 4 5 1017.7 - - - - - - - - -
28/07:30pm 23.7 E 6 6 1017.4 - - - - - - - - -
28/07:00pm 23.8 E 7 7 1017.2 - - - - - - - - -
28/06:30pm 24.2 E 8 9 1017.0 - - - - - - - - -
28/06:00pm 24.5 E 9 11 1016.5 - - - - - - - - -
28/05:30pm 24.8 E 10 11 1016.4 - - - - - - - - -
28/05:00pm 25.4 E 12 13 1016.1 - - - - - - - - -
28/04:30pm 25.8 E 13 15 1016.0 - - - - - - - - -
28/04:00pm 26.0 E 16 18 1016.0 - - - - - - - - -
28/03:30pm 26.0 E 18 21 1016.0 - - - - - - - - -
28/03:00pm 25.9 E 19 22 1016.1 - - - - - - - - -
28/02:30pm 25.8 E 20 23 1016.4 - - - - - - - - -
28/02:00pm 25.6 E 20 22 1016.7 - - - - - - - - -
28/01:30pm 25.7 E 21 24 1016.9 - - - - - - - - -
28/01:00pm 25.5 E 21 25 1017.3 - - - - - - - - -
28/12:30pm 25.6 E 23 26 1017.7 - - - - - - - - -
28/12:00pm 25.7 E 23 28 1018.1 - - - - - - - - -
28/11:30am 25.7 E 24 27 1018.5 - - - - - - - - -
28/11:00am 25.5 E 25 29 1018.8 - - - - - - - - -
28/10:30am 25.4 E 26 30 1019.0 - - - - - - - - -
28/10:00am 25.1 E 26 30 1019.3 - - - - - - - - -
28/09:30am 25.1 E 26 33 1019.4 - - - - - - - - -
28/09:00am 24.9 E 27 31 1019.4 - - - - - - - - -
28/08:30am 24.7 E 26 31 1019.4 - - - - - - - - -
28/08:00am 24.7 E 27 32 1018.9 - - - - - - - - -
28/07:30am 24.4 E 25 29 1018.8 - - - - - - - - -
28/07:00am 24.2 E 27 31 1018.3 - - - - - - - - -
28/06:30am 24.1 E 27 31 1017.9 - - - - - - - - -
28/06:00am 24.1 E 26 30 1017.5 - - - - - - - - -
28/05:30am 24.2 E 27 31 1017.3 - - - - - - - - -
28/05:00am 24.3 E 25 30 1017.0 - - - - - - - - -
28/04:30am 24.2 E 25 29 1016.8 - - - - - - - - -
28/04:00am 24.3 E 24 28 1016.7 - - - - - - - - -
28/03:30am 24.3 E 23 27 1016.6 - - - - - - - - -
28/03:00am 24.3 E 23 29 1016.6 - - - - - - - - -
28/02:30am 24.4 E 23 27 1016.8 - - - - - - - - -
28/02:00am 24.6 E 23 27 1016.7 - - - - - - - - -
28/01:30am 24.6 E 23 26 1016.6 - - - - - - - - -
28/01:00am 24.5 E 20 25 1016.7 - - - - - - - - -
28/12:30am 24.5 E 20 24 1016.5 - - - - - - - - -
28/12:00am 24.2 E 17 20 1016.4 - - - - - - - - -
 
Date/Time
WST
Temp
°C
Wind Pressure Rain since
9am
mm
Weather Cloud Vis
km
Sea
Height
m
Swell
Dir  Spd
kts
Gust
kts
hPa Trend Height
m
Period
s
Dir
27/11:30pm 24.5 E 15 18 1016.5 - - - - - - - - -
27/11:00pm 24.4 E 14 15 1016.6 - - - - - - - - -
27/10:30pm 24.2 E 12 14 1016.9 - - - - - - - - -
27/10:00pm 24.2 E 12 13 1017.0 - - - - - - - - -
27/09:30pm 24.3 E 11 13 1016.9 - - - - - - - - -
27/09:00pm 24.4 E 10 11 1016.8 - - - - - - - - -
27/08:30pm 24.3 E 9 11 1016.7 - - - - - - - - -
27/08:00pm 24.5 E 9 10 1016.5 - - - - - - - - -
27/07:30pm 24.4 E 8 9 1016.1 - - - - - - - - -
27/07:00pm 24.5 E 9 10 1015.7 - - - - - - - - -
27/06:30pm 24.9 E 10 11 1015.4 - - - - - - - - -
27/06:00pm 24.9 E 10 12 1014.9 - - - - - - - - -
27/05:30pm 25.4 E 12 14 1014.7 - - - - - - - - -
27/05:00pm 25.6 E 11 13 1014.6 - - - - - - - - -
27/04:30pm 26.0 E 12 14 1014.6 - - - - - - - - -
27/04:00pm 26.2 E 12 13 1014.5 - - - - - - - - -
27/03:30pm 26.4 E 12 14 1014.6 - - - - - - - - -
27/03:00pm 26.4 E 14 16 1014.3 - - - - - - - - -
27/02:30pm 26.4 E 13 15 1014.7 - - - - - - - - -
27/02:00pm 26.6 E 15 17 1014.9 - - - - - - - - -
27/01:30pm 26.2 E 17 19 1015.1 - - - - - - - - -
27/01:00pm 25.9 E 18 21 1015.3 - - - - - - - - -
27/12:30pm 25.7 E 19 23 1016.0 - - - - - - - - -
27/12:00pm 24.8 ESE 21 24 1016.3 - - - - - - - - -
27/11:30am 24.6 ESE 21 25 1017.0 - - - - - - - - -
27/11:00am 23.9 E 23 26 1017.5 - - - - - - - - -
27/10:30am 23.5 ESE 24 28 1017.7 - - - - - - - - -
27/10:00am 23.0 E 24 29 1017.8 - - - - - - - - -
27/09:30am 22.5 E 26 29 1017.8 - - - - - - - - -
27/09:00am 22.1 ESE 25 29 1017.7 - - - - - - - - -
27/08:30am 21.9 ESE 27 31 1017.9 - - - - - - - - -
27/08:00am 22.1 ESE 27 31 1017.6 - - - - - - - - -
27/07:30am 21.9 ESE 27 33 1017.3 - - - - - - - - -
27/07:00am 21.9 ESE 29 33 1017.0 - - - - - - - - -
27/06:30am 21.8 ESE 30 34 1016.7 - - - - - - - - -
27/06:00am 21.8 ESE 29 33 1016.2 - - - - - - - - -
27/05:30am 22.0 ESE 30 34 1016.0 - - - - - - - - -
27/05:00am 22.1 ESE 29 33 1015.8 - - - - - - - - -
27/04:30am 22.1 ESE 29 33 1015.8 - - - - - - - - -
27/04:00am 22.2 ESE 30 34 1015.8 - - - - - - - - -
27/03:30am 22.3 ESE 29 33 1015.8 - - - - - - - - -
27/03:00am 22.5 ESE 30 35 1015.6 - - - - - - - - -
27/02:30am 22.5 SE 27 32 1016.0 - - - - - - - - -
27/02:00am 22.4 SE 25 30 1016.1 - - - - - - - - -
27/01:30am 22.4 SE 24 29 1016.4 - - - - - - - - -
27/01:00am 22.4 SE 24 28 1016.5 - - - - - - - - -
27/12:30am 22.6 SE 24 28 1016.7 - - - - - - - - -
27/12:00am 22.8 SE 22 26 1016.7 - - - - - - - - -
 
Date/Time
WST
Temp
°C
Wind Pressure Rain since
9am
mm
Weather Cloud Vis
km
Sea
Height
m
Swell
Dir  Spd
kts
Gust
kts
hPa Trend Height
m
Period
s
Dir
26/11:30pm 22.9 SE 21 24 1017.1 - - - - - - - - -
26/11:00pm 22.8 SE 19 22 1017.3 - - - - - - - - -
26/10:30pm 22.9 SE 18 22 1017.4 - - - - - - - - -
26/10:00pm 23.3 SE 18 22 1017.4 - - - - - - - - -
26/09:30pm 23.4 SE 17 20 1017.5 - - - - - - - - -
26/09:00pm 24.0 SE 18 21 1017.4 - - - - - - - - -
26/08:30pm 24.0 SE 17 19 1017.3 - - - - - - - - -
26/08:00pm 24.2 ESE 17 19 1017.1 - - - - - - - - -

Other Formats:

Comma delimited format used in spreadsheet applications
http://www.bom.gov.au/fwo/IDW60701/IDW60701.94310.axf

JavaScript Object Notation format (JSON) in row-major order
http://www.bom.gov.au/fwo/IDW60701/IDW60701.94310.json